sensor_id;sensor_type;location;lat;lon;timestamp;temperature;humidity
13754;DHT22;6948;51.216;6.778;2023-04-03T00:01:33;6.20;99.90
13754;DHT22;6948;51.216;6.778;2023-04-03T00:03:59;6.20;99.90
13754;DHT22;6948;51.216;6.778;2023-04-03T00:06:25;6.30;99.90
13754;DHT22;6948;51.216;6.778;2023-04-03T00:08:50;6.30;99.90
13754;DHT22;6948;51.216;6.778;2023-04-03T00:11:17;6.30;99.90
13754;DHT22;6948;51.216;6.778;2023-04-03T00:13:43;6.30;99.90
13754;DHT22;6948;51.216;6.778;2023-04-03T00:16:10;6.30;99.90
13754;DHT22;6948;51.216;6.778;2023-04-03T00:18:36;6.30;99.90
13754;DHT22;6948;51.216;6.778;2023-04-03T00:21:02;6.30;99.90
13754;DHT22;6948;51.216;6.778;2023-04-03T00:23:28;6.30;99.90
13754;DHT22;6948;51.216;6.778;2023-04-03T00:25:54;6.20;99.90
13754;DHT22;6948;51.216;6.778;2023-04-03T00:28:21;6.20;99.90
13754;DHT22;6948;51.216;6.778;2023-04-03T00:30:48;6.20;99.90
13754;DHT22;6948;51.216;6.778;2023-04-03T00:33:14;6.20;99.90
13754;DHT22;6948;51.216;6.778;2023-04-03T00:35:41;6.20;99.90
13754;DHT22;6948;51.216;6.778;2023-04-03T00:38:06;6.20;99.90
13754;DHT22;6948;51.216;6.778;2023-04-03T00:40:35;6.10;99.90
13754;DHT22;6948;51.216;6.778;2023-04-03T00:43:01;6.00;99.90
13754;DHT22;6948;51.216;6.778;2023-04-03T00:45:35;6.00;99.90
13754;DHT22;6948;51.216;6.778;2023-04-03T00:48:03;6.00;99.90
13754;DHT22;6948;51.216;6.778;2023-04-03T00:50:33;6.00;99.90
13754;DHT22;6948;51.216;6.778;2023-04-03T00:53:00;5.90;99.90
13754;DHT22;6948;51.216;6.778;2023-04-03T00:55:27;5.90;99.90
13754;DHT22;6948;51.216;6.778;2023-04-03T00:57:53;5.90;99.90
13754;DHT22;6948;51.216;6.778;2023-04-03T01:00:21;5.90;99.90
13754;DHT22;6948;51.216;6.778;2023-04-03T01:02:49;5.90;99.90
13754;DHT22;6948;51.216;6.778;2023-04-03T01:05:16;5.90;99.90
13754;DHT22;6948;51.216;6.778;2023-04-03T01:07:43;5.90;99.90
13754;DHT22;6948;51.216;6.778;2023-04-03T01:10:11;5.80;99.90
13754;DHT22;6948;51.216;6.778;2023-04-03T01:12:41;5.90;99.90
13754;DHT22;6948;51.216;6.778;2023-04-03T01:15:12;5.90;99.90
13754;DHT22;6948;51.216;6.778;2023-04-03T01:17:41;5.80;99.90
13754;DHT22;6948;51.216;6.778;2023-04-03T01:23:14;5.80;99.90
13754;DHT22;6948;51.216;6.778;2023-04-03T01:25:49;5.80;99.90
13754;DHT22;6948;51.216;6.778;2023-04-03T01:28:19;5.70;99.90
13754;DHT22;6948;51.216;6.778;2023-04-03T01:31:00;5.60;99.90
13754;DHT22;6948;51.216;6.778;2023-04-03T01:33:28;5.60;99.90
13754;DHT22;6948;51.216;6.778;2023-04-03T01:35:54;5.50;99.90
13754;DHT22;6948;51.216;6.778;2023-04-03T01:38:20;5.50;99.90
13754;DHT22;6948;51.216;6.778;2023-04-03T01:40:46;5.50;99.90
13754;DHT22;6948;51.216;6.778;2023-04-03T01:43:12;5.50;99.90
13754;DHT22;6948;51.216;6.778;2023-04-03T01:45:37;5.40;99.90
13754;DHT22;6948;51.216;6.778;2023-04-03T01:48:03;5.30;99.90
13754;DHT22;6948;51.216;6.778;2023-04-03T01:50:29;5.30;99.90
13754;DHT22;6948;51.216;6.778;2023-04-03T01:52:55;5.20;99.90
13754;DHT22;6948;51.216;6.778;2023-04-03T01:55:21;5.20;99.90
13754;DHT22;6948;51.216;6.778;2023-04-03T01:57:46;5.20;99.90
13754;DHT22;6948;51.216;6.778;2023-04-03T02:00:13;5.10;99.90
13754;DHT22;6948;51.216;6.778;2023-04-03T02:02:39;5.10;99.90
13754;DHT22;6948;51.216;6.778;2023-04-03T02:05:05;5.00;99.90
13754;DHT22;6948;51.216;6.778;2023-04-03T02:07:30;5.00;99.90
13754;DHT22;6948;51.216;6.778;2023-04-03T02:09:56;5.00;99.90
13754;DHT22;6948;51.216;6.778;2023-04-03T02:12:22;5.00;99.90
13754;DHT22;6948;51.216;6.778;2023-04-03T02:14:47;5.00;99.90
13754;DHT22;6948;51.216;6.778;2023-04-03T02:17:13;5.00;99.90
13754;DHT22;6948;51.216;6.778;2023-04-03T02:19:38;5.00;99.90
13754;DHT22;6948;51.216;6.778;2023-04-03T02:22:04;4.90;99.90
13754;DHT22;6948;51.216;6.778;2023-04-03T02:24:31;4.90;99.90
13754;DHT22;6948;51.216;6.778;2023-04-03T02:26:57;5.00;99.90
13754;DHT22;6948;51.216;6.778;2023-04-03T02:29:22;5.00;99.90
13754;DHT22;6948;51.216;6.778;2023-04-03T02:31:49;4.90;99.90
13754;DHT22;6948;51.216;6.778;2023-04-03T02:34:15;5.00;99.90
13754;DHT22;6948;51.216;6.778;2023-04-03T02:36:41;4.90;99.90
13754;DHT22;6948;51.216;6.778;2023-04-03T02:39:07;4.90;99.90
13754;DHT22;6948;51.216;6.778;2023-04-03T02:41:33;4.90;99.90
13754;DHT22;6948;51.216;6.778;2023-04-03T02:44:03;4.90;99.90
13754;DHT22;6948;51.216;6.778;2023-04-03T02:46:28;4.80;99.90
13754;DHT22;6948;51.216;6.778;2023-04-03T02:48:54;4.80;99.90
13754;DHT22;6948;51.216;6.778;2023-04-03T02:51:19;4.80;99.90
13754;DHT22;6948;51.216;6.778;2023-04-03T02:53:45;4.80;99.90
13754;DHT22;6948;51.216;6.778;2023-04-03T02:56:11;4.70;99.90
13754;DHT22;6948;51.216;6.778;2023-04-03T02:58:37;4.80;99.90
13754;DHT22;6948;51.216;6.778;2023-04-03T03:01:03;4.80;99.90
13754;DHT22;6948;51.216;6.778;2023-04-03T03:03:28;4.90;99.90
13754;DHT22;6948;51.216;6.778;2023-04-03T03:06:02;4.80;99.90
13754;DHT22;6948;51.216;6.778;2023-04-03T03:08:27;4.60;99.90
13754;DHT22;6948;51.216;6.778;2023-04-03T03:10:53;4.60;99.90
13754;DHT22;6948;51.216;6.778;2023-04-03T03:13:18;4.50;99.90
13754;DHT22;6948;51.216;6.778;2023-04-03T03:15:44;4.60;99.90
13754;DHT22;6948;51.216;6.778;2023-04-03T03:18:10;4.50;99.90
13754;DHT22;6948;51.216;6.778;2023-04-03T03:20:35;4.50;99.90
13754;DHT22;6948;51.216;6.778;2023-04-03T03:23:01;4.50;99.90
13754;DHT22;6948;51.216;6.778;2023-04-03T03:25:27;4.30;99.90
13754;DHT22;6948;51.216;6.778;2023-04-03T03:27:52;4.20;99.90
13754;DHT22;6948;51.216;6.778;2023-04-03T03:30:18;4.20;99.90
13754;DHT22;6948;51.216;6.778;2023-04-03T03:32:44;4.10;99.90
13754;DHT22;6948;51.216;6.778;2023-04-03T03:35:10;4.10;99.90
13754;DHT22;6948;51.216;6.778;2023-04-03T03:37:35;4.10;99.90
13754;DHT22;6948;51.216;6.778;2023-04-03T03:40:01;4.10;99.90
13754;DHT22;6948;51.216;6.778;2023-04-03T03:42:27;4.00;99.90
13754;DHT22;6948;51.216;6.778;2023-04-03T03:44:53;3.90;99.90
13754;DHT22;6948;51.216;6.778;2023-04-03T03:47:19;3.90;99.90
13754;DHT22;6948;51.216;6.778;2023-04-03T03:49:44;3.80;99.90
13754;DHT22;6948;51.216;6.778;2023-04-03T03:52:10;3.80;99.90
13754;DHT22;6948;51.216;6.778;2023-04-03T03:54:36;3.70;99.90
13754;DHT22;6948;51.216;6.778;2023-04-03T03:57:03;3.60;99.90
13754;DHT22;6948;51.216;6.778;2023-04-03T03:59:28;3.60;99.90
13754;DHT22;6948;51.216;6.778;2023-04-03T04:01:54;3.60;99.90
13754;DHT22;6948;51.216;6.778;2023-04-03T04:04:20;3.70;99.90
13754;DHT22;6948;51.216;6.778;2023-04-03T04:06:46;3.50;99.90
13754;DHT22;6948;51.216;6.778;2023-04-03T04:09:12;3.50;99.90
13754;DHT22;6948;51.216;6.778;2023-04-03T04:11:38;3.50;99.90
13754;DHT22;6948;51.216;6.778;2023-04-03T04:14:05;3.50;99.90
13754;DHT22;6948;51.216;6.778;2023-04-03T04:16:31;3.40;99.90
13754;DHT22;6948;51.216;6.778;2023-04-03T04:18:56;3.30;99.90
13754;DHT22;6948;51.216;6.778;2023-04-03T04:21:22;3.30;99.90
13754;DHT22;6948;51.216;6.778;2023-04-03T04:23:48;3.30;99.90
13754;DHT22;6948;51.216;6.778;2023-04-03T04:26:13;3.30;99.90
13754;DHT22;6948;51.216;6.778;2023-04-03T04:28:39;3.30;99.90
13754;DHT22;6948;51.216;6.778;2023-04-03T04:31:05;3.40;99.90
13754;DHT22;6948;51.216;6.778;2023-04-03T04:33:30;3.40;99.90
13754;DHT22;6948;51.216;6.778;2023-04-03T04:35:56;3.40;99.90
13754;DHT22;6948;51.216;6.778;2023-04-03T04:38:22;3.40;99.90
13754;DHT22;6948;51.216;6.778;2023-04-03T04:40:48;3.40;99.90
13754;DHT22;6948;51.216;6.778;2023-04-03T04:43:14;3.30;99.90
13754;DHT22;6948;51.216;6.778;2023-04-03T04:45:40;3.20;99.90
13754;DHT22;6948;51.216;6.778;2023-04-03T04:48:06;3.20;99.90
13754;DHT22;6948;51.216;6.778;2023-04-03T04:50:32;3.20;99.90
13754;DHT22;6948;51.216;6.778;2023-04-03T04:52:58;3.30;99.90
13754;DHT22;6948;51.216;6.778;2023-04-03T04:55:24;3.30;99.90
13754;DHT22;6948;51.216;6.778;2023-04-03T04:57:49;3.30;99.90
13754;DHT22;6948;51.216;6.778;2023-04-03T05:00:16;3.20;99.90
13754;DHT22;6948;51.216;6.778;2023-04-03T05:02:42;3.20;99.90
13754;DHT22;6948;51.216;6.778;2023-04-03T05:05:08;3.20;99.90
13754;DHT22;6948;51.216;6.778;2023-04-03T05:07:33;3.10;99.90
13754;DHT22;6948;51.216;6.778;2023-04-03T05:10:01;3.10;99.90
13754;DHT22;6948;51.216;6.778;2023-04-03T05:12:28;3.20;99.90
13754;DHT22;6948;51.216;6.778;2023-04-03T05:14:53;3.10;99.90
13754;DHT22;6948;51.216;6.778;2023-04-03T05:17:19;3.10;99.90
13754;DHT22;6948;51.216;6.778;2023-04-03T05:19:45;3.10;99.90
13754;DHT22;6948;51.216;6.778;2023-04-03T05:22:10;3.20;99.90
13754;DHT22;6948;51.216;6.778;2023-04-03T05:24:36;3.30;99.90
13754;DHT22;6948;51.216;6.778;2023-04-03T05:27:02;3.30;99.90
13754;DHT22;6948;51.216;6.778;2023-04-03T05:29:27;3.40;99.90
13754;DHT22;6948;51.216;6.778;2023-04-03T05:31:53;3.30;99.90
13754;DHT22;6948;51.216;6.778;2023-04-03T05:34:19;3.40;99.90
13754;DHT22;6948;51.216;6.778;2023-04-03T05:36:44;3.40;99.90
13754;DHT22;6948;51.216;6.778;2023-04-03T05:39:10;3.40;99.90
13754;DHT22;6948;51.216;6.778;2023-04-03T05:41:36;3.40;99.90
13754;DHT22;6948;51.216;6.778;2023-04-03T05:44:01;3.30;99.90
13754;DHT22;6948;51.216;6.778;2023-04-03T05:46:27;3.30;99.90
13754;DHT22;6948;51.216;6.778;2023-04-03T05:48:53;3.30;99.90
13754;DHT22;6948;51.216;6.778;2023-04-03T05:51:23;3.30;99.90
13754;DHT22;6948;51.216;6.778;2023-04-03T05:53:58;3.30;99.90
13754;DHT22;6948;51.216;6.778;2023-04-03T05:56:26;3.20;99.90
13754;DHT22;6948;51.216;6.778;2023-04-03T05:58:52;3.20;99.90
13754;DHT22;6948;51.216;6.778;2023-04-03T06:01:17;3.30;99.90
13754;DHT22;6948;51.216;6.778;2023-04-03T06:03:43;3.30;99.90
13754;DHT22;6948;51.216;6.778;2023-04-03T06:06:13;3.40;99.90
13754;DHT22;6948;51.216;6.778;2023-04-03T06:08:39;3.40;99.90
13754;DHT22;6948;51.216;6.778;2023-04-03T06:11:05;3.40;99.90
13754;DHT22;6948;51.216;6.778;2023-04-03T06:13:31;3.40;99.90
13754;DHT22;6948;51.216;6.778;2023-04-03T06:15:56;3.40;99.90
13754;DHT22;6948;51.216;6.778;2023-04-03T06:18:22;3.50;99.90
13754;DHT22;6948;51.216;6.778;2023-04-03T06:20:48;3.50;99.90
13754;DHT22;6948;51.216;6.778;2023-04-03T06:23:14;3.60;99.90
13754;DHT22;6948;51.216;6.778;2023-04-03T06:25:39;3.70;99.90
13754;DHT22;6948;51.216;6.778;2023-04-03T06:28:06;3.60;99.90
13754;DHT22;6948;51.216;6.778;2023-04-03T06:30:34;3.70;99.90
13754;DHT22;6948;51.216;6.778;2023-04-03T06:33:00;3.80;99.90
13754;DHT22;6948;51.216;6.778;2023-04-03T06:35:26;3.90;99.90
13754;DHT22;6948;51.216;6.778;2023-04-03T06:37:53;3.90;99.90
13754;DHT22;6948;51.216;6.778;2023-04-03T06:40:22;4.00;99.90
13754;DHT22;6948;51.216;6.778;2023-04-03T06:42:49;3.90;99.90
13754;DHT22;6948;51.216;6.778;2023-04-03T06:45:15;4.00;99.90
13754;DHT22;6948;51.216;6.778;2023-04-03T06:47:41;4.10;99.90
13754;DHT22;6948;51.216;6.778;2023-04-03T06:50:08;4.10;99.90
13754;DHT22;6948;51.216;6.778;2023-04-03T06:52:36;4.10;99.90
13754;DHT22;6948;51.216;6.778;2023-04-03T06:55:03;4.20;99.90
13754;DHT22;6948;51.216;6.778;2023-04-03T06:57:29;4.20;99.90
13754;DHT22;6948;51.216;6.778;2023-04-03T06:59:55;4.20;99.90
13754;DHT22;6948;51.216;6.778;2023-04-03T07:02:20;4.20;99.90
13754;DHT22;6948;51.216;6.778;2023-04-03T07:04:47;4.40;99.90
13754;DHT22;6948;51.216;6.778;2023-04-03T07:07:12;4.50;99.90
13754;DHT22;6948;51.216;6.778;2023-04-03T07:09:38;4.50;99.90
13754;DHT22;6948;51.216;6.778;2023-04-03T07:12:04;4.40;99.90
13754;DHT22;6948;51.216;6.778;2023-04-03T07:14:29;4.40;99.90
13754;DHT22;6948;51.216;6.778;2023-04-03T07:16:55;4.50;99.90
13754;DHT22;6948;51.216;6.778;2023-04-03T07:19:21;4.50;99.90
13754;DHT22;6948;51.216;6.778;2023-04-03T07:21:47;4.30;99.90
13754;DHT22;6948;51.216;6.778;2023-04-03T07:24:12;4.20;99.90
13754;DHT22;6948;51.216;6.778;2023-04-03T07:26:38;4.30;99.90
13754;DHT22;6948;51.216;6.778;2023-04-03T07:29:04;4.40;99.90
13754;DHT22;6948;51.216;6.778;2023-04-03T07:31:29;4.50;99.90
13754;DHT22;6948;51.216;6.778;2023-04-03T07:33:55;4.60;99.90
13754;DHT22;6948;51.216;6.778;2023-04-03T07:36:22;4.60;99.90
13754;DHT22;6948;51.216;6.778;2023-04-03T07:38:48;4.60;99.90
13754;DHT22;6948;51.216;6.778;2023-04-03T07:41:15;4.40;99.90
13754;DHT22;6948;51.216;6.778;2023-04-03T07:43:43;4.50;99.90
13754;DHT22;6948;51.216;6.778;2023-04-03T07:46:08;4.60;99.90
13754;DHT22;6948;51.216;6.778;2023-04-03T07:48:34;4.70;99.90
13754;DHT22;6948;51.216;6.778;2023-04-03T07:51:01;4.70;99.90
13754;DHT22;6948;51.216;6.778;2023-04-03T07:53:28;4.80;99.90
13754;DHT22;6948;51.216;6.778;2023-04-03T07:55:53;4.80;99.90
13754;DHT22;6948;51.216;6.778;2023-04-03T07:58:21;4.80;99.90
13754;DHT22;6948;51.216;6.778;2023-04-03T08:00:48;4.80;99.90
13754;DHT22;6948;51.216;6.778;2023-04-03T08:03:14;4.80;99.90
13754;DHT22;6948;51.216;6.778;2023-04-03T08:05:43;4.90;99.90
13754;DHT22;6948;51.216;6.778;2023-04-03T08:08:11;4.90;99.90
13754;DHT22;6948;51.216;6.778;2023-04-03T08:10:37;5.00;99.90
13754;DHT22;6948;51.216;6.778;2023-04-03T08:13:04;5.10;99.90
13754;DHT22;6948;51.216;6.778;2023-04-03T08:15:30;5.10;99.90
13754;DHT22;6948;51.216;6.778;2023-04-03T08:17:57;5.20;99.90
13754;DHT22;6948;51.216;6.778;2023-04-03T08:20:23;5.20;99.90
13754;DHT22;6948;51.216;6.778;2023-04-03T08:22:49;5.20;99.90
13754;DHT22;6948;51.216;6.778;2023-04-03T08:25:15;5.20;99.90
13754;DHT22;6948;51.216;6.778;2023-04-03T08:27:40;5.40;99.90
13754;DHT22;6948;51.216;6.778;2023-04-03T08:30:07;5.60;99.90
13754;DHT22;6948;51.216;6.778;2023-04-03T08:32:34;5.70;99.90
13754;DHT22;6948;51.216;6.778;2023-04-03T08:35:01;5.70;99.90
13754;DHT22;6948;51.216;6.778;2023-04-03T08:37:27;5.80;99.90
13754;DHT22;6948;51.216;6.778;2023-04-03T08:39:53;5.70;99.90
13754;DHT22;6948;51.216;6.778;2023-04-03T08:48:21;5.90;99.90
13754;DHT22;6948;51.216;6.778;2023-04-03T08:50:53;6.00;99.90
13754;DHT22;6948;51.216;6.778;2023-04-03T08:53:23;6.10;99.90
13754;DHT22;6948;51.216;6.778;2023-04-03T08:55:50;6.00;99.90
13754;DHT22;6948;51.216;6.778;2023-04-03T08:58:20;6.00;99.90
13754;DHT22;6948;51.216;6.778;2023-04-03T09:03:31;6.20;99.90
13754;DHT22;6948;51.216;6.778;2023-04-03T09:06:05;6.20;99.90
13754;DHT22;6948;51.216;6.778;2023-04-03T09:08:51;6.10;99.90
13754;DHT22;6948;51.216;6.778;2023-04-03T09:11:35;6.20;99.90
13754;DHT22;6948;51.216;6.778;2023-04-03T09:22:31;6.10;99.90
13754;DHT22;6948;51.216;6.778;2023-04-03T09:25:05;6.50;99.90
13754;DHT22;6948;51.216;6.778;2023-04-03T09:27:33;6.40;99.90
13754;DHT22;6948;51.216;6.778;2023-04-03T09:29:59;6.40;99.90
13754;DHT22;6948;51.216;6.778;2023-04-03T09:32:29;6.50;99.90
13754;DHT22;6948;51.216;6.778;2023-04-03T09:35:00;6.50;99.90
13754;DHT22;6948;51.216;6.778;2023-04-03T09:37:40;6.50;99.90
13754;DHT22;6948;51.216;6.778;2023-04-03T09:43:26;6.60;99.90
13754;DHT22;6948;51.216;6.778;2023-04-03T09:45:52;6.60;99.90
13754;DHT22;6948;51.216;6.778;2023-04-03T09:48:21;6.60;99.90
13754;DHT22;6948;51.216;6.778;2023-04-03T09:53:32;6.70;99.90
13754;DHT22;6948;51.216;6.778;2023-04-03T09:55:59;6.80;99.90
13754;DHT22;6948;51.216;6.778;2023-04-03T09:58:28;6.80;99.90
13754;DHT22;6948;51.216;6.778;2023-04-03T10:00:57;6.80;99.90
13754;DHT22;6948;51.216;6.778;2023-04-03T10:03:28;6.90;99.90
13754;DHT22;6948;51.216;6.778;2023-04-03T10:05:54;7.00;99.90
13754;DHT22;6948;51.216;6.778;2023-04-03T10:16:42;7.40;99.90
13754;DHT22;6948;51.216;6.778;2023-04-03T10:22:02;7.40;99.90
13754;DHT22;6948;51.216;6.778;2023-04-03T10:44:13;7.70;99.90
13754;DHT22;6948;51.216;6.778;2023-04-03T10:46:47;7.90;99.90
13754;DHT22;6948;51.216;6.778;2023-04-03T10:52:06;8.10;99.90
13754;DHT22;6948;51.216;6.778;2023-04-03T10:54:39;8.10;99.90
13754;DHT22;6948;51.216;6.778;2023-04-03T10:57:09;7.80;99.90
13754;DHT22;6948;51.216;6.778;2023-04-03T11:02:23;7.80;99.90
13754;DHT22;6948;51.216;6.778;2023-04-03T11:07:50;8.00;99.90
13754;DHT22;6948;51.216;6.778;2023-04-03T11:10:25;8.20;99.90
13754;DHT22;6948;51.216;6.778;2023-04-03T11:13:01;8.40;99.90
13754;DHT22;6948;51.216;6.778;2023-04-03T11:15:32;8.20;99.90
13754;DHT22;6948;51.216;6.778;2023-04-03T11:18:18;8.20;99.90
13754;DHT22;6948;51.216;6.778;2023-04-03T11:20:57;8.30;99.90
13754;DHT22;6948;51.216;6.778;2023-04-03T11:23:26;8.40;99.90
13754;DHT22;6948;51.216;6.778;2023-04-03T11:26:02;8.50;97.90
13754;DHT22;6948;51.216;6.778;2023-04-03T11:28:32;8.60;91.10
13754;DHT22;6948;51.216;6.778;2023-04-03T11:34:22;8.60;92.80
13754;DHT22;6948;51.216;6.778;2023-04-03T11:36:56;8.50;91.90
13754;DHT22;6948;51.216;6.778;2023-04-03T11:39:29;8.60;91.80
13754;DHT22;6948;51.216;6.778;2023-04-03T11:42:14;8.80;91.00
13754;DHT22;6948;51.216;6.778;2023-04-03T11:44:40;8.70;90.70
13754;DHT22;6948;51.216;6.778;2023-04-03T11:47:09;8.80;91.00
13754;DHT22;6948;51.216;6.778;2023-04-03T11:49:54;8.80;90.30
13754;DHT22;6948;51.216;6.778;2023-04-03T12:11:25;9.10;82.60
13754;DHT22;6948;51.216;6.778;2023-04-03T12:24:34;9.50;86.30
13754;DHT22;6948;51.216;6.778;2023-04-03T12:35:37;9.50;95.40
13754;DHT22;6948;51.216;6.778;2023-04-03T12:38:30;9.60;98.70
13754;DHT22;6948;51.216;6.778;2023-04-03T12:41:16;9.60;98.80
13754;DHT22;6948;51.216;6.778;2023-04-03T12:46:45;9.50;98.80
13754;DHT22;6948;51.216;6.778;2023-04-03T12:52:16;9.60;97.70
13754;DHT22;6948;51.216;6.778;2023-04-03T12:54:45;9.60;95.60
13754;DHT22;6948;51.216;6.778;2023-04-03T12:57:18;9.60;95.10
13754;DHT22;6948;51.216;6.778;2023-04-03T12:59:44;9.50;95.10
13754;DHT22;6948;51.216;6.778;2023-04-03T13:05:05;9.40;95.10
13754;DHT22;6948;51.216;6.778;2023-04-03T13:07:34;9.40;95.60
13754;DHT22;6948;51.216;6.778;2023-04-03T13:13:06;9.30;96.10
13754;DHT22;6948;51.216;6.778;2023-04-03T13:15:49;9.60;99.90
13754;DHT22;6948;51.216;6.778;2023-04-03T13:18:34;9.70;97.90
13754;DHT22;6948;51.216;6.778;2023-04-03T13:23:43;9.80;99.40
13754;DHT22;6948;51.216;6.778;2023-04-03T13:26:10;9.70;99.00
13754;DHT22;6948;51.216;6.778;2023-04-03T13:28:38;9.60;99.90
13754;DHT22;6948;51.216;6.778;2023-04-03T13:31:14;9.60;99.90
13754;DHT22;6948;51.216;6.778;2023-04-03T13:33:54;9.60;99.90
13754;DHT22;6948;51.216;6.778;2023-04-03T13:36:23;9.70;99.90
13754;DHT22;6948;51.216;6.778;2023-04-03T13:41:50;9.60;99.90
13754;DHT22;6948;51.216;6.778;2023-04-03T13:46:56;9.50;99.90
13754;DHT22;6948;51.216;6.778;2023-04-03T13:49:41;9.70;99.90
13754;DHT22;6948;51.216;6.778;2023-04-03T13:52:27;9.80;99.90
13754;DHT22;6948;51.216;6.778;2023-04-03T13:54:59;9.70;99.90
13754;DHT22;6948;51.216;6.778;2023-04-03T13:57:25;9.60;99.90
13754;DHT22;6948;51.216;6.778;2023-04-03T13:59:52;9.70;99.90
13754;DHT22;6948;51.216;6.778;2023-04-03T14:02:22;9.70;99.90
13754;DHT22;6948;51.216;6.778;2023-04-03T14:04:57;9.60;99.90
13754;DHT22;6948;51.216;6.778;2023-04-03T14:07:27;9.60;99.90
13754;DHT22;6948;51.216;6.778;2023-04-03T14:09:53;9.50;99.90
13754;DHT22;6948;51.216;6.778;2023-04-03T14:15:04;9.50;99.90
13754;DHT22;6948;51.216;6.778;2023-04-03T14:17:31;9.60;99.90
13754;DHT22;6948;51.216;6.778;2023-04-03T14:19:59;9.60;99.90
13754;DHT22;6948;51.216;6.778;2023-04-03T14:22:30;9.60;99.90
13754;DHT22;6948;51.216;6.778;2023-04-03T14:24:57;9.60;99.90
13754;DHT22;6948;51.216;6.778;2023-04-03T14:27:33;9.50;99.90
13754;DHT22;6948;51.216;6.778;2023-04-03T14:30:00;9.40;99.90
13754;DHT22;6948;51.216;6.778;2023-04-03T14:32:26;9.40;99.90
13754;DHT22;6948;51.216;6.778;2023-04-03T14:34:53;9.40;99.90
13754;DHT22;6948;51.216;6.778;2023-04-03T14:37:23;9.50;99.90
13754;DHT22;6948;51.216;6.778;2023-04-03T14:39:50;9.60;99.90
13754;DHT22;6948;51.216;6.778;2023-04-03T14:42:20;9.60;99.90
13754;DHT22;6948;51.216;6.778;2023-04-03T14:44:47;9.60;99.90
13754;DHT22;6948;51.216;6.778;2023-04-03T14:47:15;9.70;99.90
13754;DHT22;6948;51.216;6.778;2023-04-03T14:49:42;9.70;99.90
13754;DHT22;6948;51.216;6.778;2023-04-03T14:52:20;9.60;99.90
13754;DHT22;6948;51.216;6.778;2023-04-03T14:54:47;9.50;99.90
13754;DHT22;6948;51.216;6.778;2023-04-03T14:57:14;9.60;99.90
13754;DHT22;6948;51.216;6.778;2023-04-03T14:59:40;9.70;99.90
13754;DHT22;6948;51.216;6.778;2023-04-03T15:05:04;9.50;99.90
13754;DHT22;6948;51.216;6.778;2023-04-03T15:07:33;9.50;99.90
13754;DHT22;6948;51.216;6.778;2023-04-03T15:10:18;9.60;99.90
13754;DHT22;6948;51.216;6.778;2023-04-03T15:12:45;9.60;99.90
13754;DHT22;6948;51.216;6.778;2023-04-03T15:15:11;9.60;99.90
13754;DHT22;6948;51.216;6.778;2023-04-03T15:17:38;9.60;99.90
13754;DHT22;6948;51.216;6.778;2023-04-03T15:20:15;9.60;99.90
13754;DHT22;6948;51.216;6.778;2023-04-03T15:22:41;9.50;99.90
13754;DHT22;6948;51.216;6.778;2023-04-03T15:25:07;9.40;99.90
13754;DHT22;6948;51.216;6.778;2023-04-03T15:27:34;9.30;99.90
13754;DHT22;6948;51.216;6.778;2023-04-03T15:30:00;9.30;99.90
13754;DHT22;6948;51.216;6.778;2023-04-03T15:32:25;9.40;99.90
13754;DHT22;6948;51.216;6.778;2023-04-03T15:34:51;9.30;99.90
13754;DHT22;6948;51.216;6.778;2023-04-03T15:37:17;9.30;99.90
13754;DHT22;6948;51.216;6.778;2023-04-03T15:39:43;9.40;99.90
13754;DHT22;6948;51.216;6.778;2023-04-03T15:42:08;9.40;99.90
13754;DHT22;6948;51.216;6.778;2023-04-03T15:44:34;9.30;99.90
13754;DHT22;6948;51.216;6.778;2023-04-03T15:47:00;9.30;99.90
13754;DHT22;6948;51.216;6.778;2023-04-03T15:49:27;9.40;99.90
13754;DHT22;6948;51.216;6.778;2023-04-03T15:51:53;9.40;99.90
13754;DHT22;6948;51.216;6.778;2023-04-03T15:54:19;9.40;99.90
13754;DHT22;6948;51.216;6.778;2023-04-03T15:56:45;9.40;99.90
13754;DHT22;6948;51.216;6.778;2023-04-03T15:59:11;9.20;99.90
13754;DHT22;6948;51.216;6.778;2023-04-03T16:01:37;9.30;99.90
13754;DHT22;6948;51.216;6.778;2023-04-03T16:04:05;9.30;99.90
13754;DHT22;6948;51.216;6.778;2023-04-03T16:06:30;9.30;99.90
13754;DHT22;6948;51.216;6.778;2023-04-03T16:08:57;9.20;99.90
13754;DHT22;6948;51.216;6.778;2023-04-03T16:11:24;9.20;99.90
13754;DHT22;6948;51.216;6.778;2023-04-03T16:13:51;9.20;99.90
13754;DHT22;6948;51.216;6.778;2023-04-03T16:16:17;9.10;99.90
13754;DHT22;6948;51.216;6.778;2023-04-03T16:18:43;9.10;99.90
13754;DHT22;6948;51.216;6.778;2023-04-03T16:21:09;9.10;99.90
13754;DHT22;6948;51.216;6.778;2023-04-03T16:23:35;9.10;99.90
13754;DHT22;6948;51.216;6.778;2023-04-03T16:26:01;9.30;99.90
13754;DHT22;6948;51.216;6.778;2023-04-03T16:28:26;9.10;99.90
13754;DHT22;6948;51.216;6.778;2023-04-03T16:30:52;8.90;99.90
13754;DHT22;6948;51.216;6.778;2023-04-03T16:33:18;8.90;99.90
13754;DHT22;6948;51.216;6.778;2023-04-03T16:35:46;8.80;99.90
13754;DHT22;6948;51.216;6.778;2023-04-03T16:38:14;8.80;99.90
13754;DHT22;6948;51.216;6.778;2023-04-03T16:40:40;8.90;99.90
13754;DHT22;6948;51.216;6.778;2023-04-03T16:43:06;8.80;99.90
13754;DHT22;6948;51.216;6.778;2023-04-03T16:45:32;8.80;99.90
13754;DHT22;6948;51.216;6.778;2023-04-03T16:47:58;8.70;99.90
13754;DHT22;6948;51.216;6.778;2023-04-03T16:50:23;8.80;99.90
13754;DHT22;6948;51.216;6.778;2023-04-03T16:52:49;8.70;99.90
13754;DHT22;6948;51.216;6.778;2023-04-03T16:55:15;8.80;99.90
13754;DHT22;6948;51.216;6.778;2023-04-03T16:57:41;8.80;99.90
13754;DHT22;6948;51.216;6.778;2023-04-03T17:00:07;8.70;99.90
13754;DHT22;6948;51.216;6.778;2023-04-03T17:02:33;8.70;99.90
13754;DHT22;6948;51.216;6.778;2023-04-03T17:04:59;8.70;99.90
13754;DHT22;6948;51.216;6.778;2023-04-03T17:07:25;8.70;99.90
13754;DHT22;6948;51.216;6.778;2023-04-03T17:09:52;8.60;99.90
13754;DHT22;6948;51.216;6.778;2023-04-03T17:12:20;8.60;99.90
13754;DHT22;6948;51.216;6.778;2023-04-03T17:14:46;8.60;99.90
13754;DHT22;6948;51.216;6.778;2023-04-03T17:17:13;8.50;99.90
13754;DHT22;6948;51.216;6.778;2023-04-03T17:19:40;8.50;99.90
13754;DHT22;6948;51.216;6.778;2023-04-03T17:22:07;8.50;99.90
13754;DHT22;6948;51.216;6.778;2023-04-03T17:24:34;8.40;99.90
13754;DHT22;6948;51.216;6.778;2023-04-03T17:27:00;8.30;99.90
13754;DHT22;6948;51.216;6.778;2023-04-03T17:29:25;8.30;99.90
13754;DHT22;6948;51.216;6.778;2023-04-03T17:31:51;8.30;99.90
13754;DHT22;6948;51.216;6.778;2023-04-03T17:34:17;8.30;99.90
13754;DHT22;6948;51.216;6.778;2023-04-03T17:36:43;8.20;99.90
13754;DHT22;6948;51.216;6.778;2023-04-03T17:39:08;8.20;99.90
13754;DHT22;6948;51.216;6.778;2023-04-03T17:41:34;8.10;99.90
13754;DHT22;6948;51.216;6.778;2023-04-03T17:44:00;8.10;99.90
13754;DHT22;6948;51.216;6.778;2023-04-03T17:46:26;8.00;99.90
13754;DHT22;6948;51.216;6.778;2023-04-03T17:48:52;8.00;99.90
13754;DHT22;6948;51.216;6.778;2023-04-03T17:51:20;7.90;99.90
13754;DHT22;6948;51.216;6.778;2023-04-03T17:53:47;7.90;99.90
13754;DHT22;6948;51.216;6.778;2023-04-03T17:58:50;7.90;99.90
13754;DHT22;6948;51.216;6.778;2023-04-03T18:01:19;7.80;99.90
13754;DHT22;6948;51.216;6.778;2023-04-03T18:03:46;7.80;99.90
13754;DHT22;6948;51.216;6.778;2023-04-03T18:06:15;7.70;99.90
13754;DHT22;6948;51.216;6.778;2023-04-03T18:08:45;7.60;99.90
13754;DHT22;6948;51.216;6.778;2023-04-03T18:11:12;7.60;99.90
13754;DHT22;6948;51.216;6.778;2023-04-03T18:13:38;7.50;99.90
13754;DHT22;6948;51.216;6.778;2023-04-03T18:16:07;7.50;99.90
13754;DHT22;6948;51.216;6.778;2023-04-03T18:18:33;7.50;99.90
13754;DHT22;6948;51.216;6.778;2023-04-03T18:20:59;7.60;99.90